National Weather Service Raw Text Product

Displaying AFOS PIL: TAFDSM Received: 2018-02-14 05:26 UTC


836 
FTUS43 KDMX 140526
TAFDSM
TAF
KDSM 140526Z 1406/1506 18010KT P6SM SKC
     FM141600 21009KT P6SM SCT150
     FM150000 22009KT P6SM SCT050
     FM150400 23007KT 5SM BR SCT050=